sensor_id;sensor_type;location;lat;lon;timestamp;pressure;altitude;pressure_sealevel;temperature;humidity
59391;BME280;53405;57.012;40.984;2023-08-01T00:00:03;99503.47;;;16.73;95.85
59391;BME280;53405;57.012;40.984;2023-08-01T00:02:38;99497.41;;;16.54;97.36
59391;BME280;53405;57.012;40.984;2023-08-01T00:05:06;99486.91;;;16.47;97.32
59391;BME280;53405;57.012;40.984;2023-08-01T00:07:34;99497.56;;;16.59;95.89
59391;BME280;53405;57.012;40.984;2023-08-01T00:10:03;99488.31;;;16.50;95.24
59391;BME280;53405;57.012;40.984;2023-08-01T00:12:33;99461.72;;;16.50;94.46
59391;BME280;53405;57.012;40.984;2023-08-01T00:15:01;99490.97;;;16.61;94.90
59391;BME280;53405;57.012;40.984;2023-08-01T00:17:31;99466.25;;;16.49;94.49
59391;BME280;53405;57.012;40.984;2023-08-01T00:19:58;99498.94;;;16.61;93.98
59391;BME280;53405;57.012;40.984;2023-08-01T00:22:26;99495.25;;;16.62;93.94
59391;BME280;53405;57.012;40.984;2023-08-01T00:24:53;99476.97;;;16.42;94.00
59391;BME280;53405;57.012;40.984;2023-08-01T00:27:21;99477.91;;;16.60;93.76
59391;BME280;53405;57.012;40.984;2023-08-01T00:29:49;99481.81;;;16.46;95.01
59391;BME280;53405;57.012;40.984;2023-08-01T00:32:16;99493.41;;;16.51;94.67
59391;BME280;53405;57.012;40.984;2023-08-01T00:34:44;99494.31;;;16.45;94.86
59391;BME280;53405;57.012;40.984;2023-08-01T00:37:12;99484.00;;;16.37;95.02
59391;BME280;53405;57.012;40.984;2023-08-01T00:39:40;99500.88;;;16.42;95.00
59391;BME280;53405;57.012;40.984;2023-08-01T00:42:07;99495.56;;;16.42;95.35
59391;BME280;53405;57.012;40.984;2023-08-01T00:44:35;99467.69;;;16.33;95.58
59391;BME280;53405;57.012;40.984;2023-08-01T00:47:03;99487.97;;;16.58;94.60
59391;BME280;53405;57.012;40.984;2023-08-01T00:49:31;99488.75;;;16.47;95.35
59391;BME280;53405;57.012;40.984;2023-08-01T00:51:59;99487.94;;;16.34;95.98
59391;BME280;53405;57.012;40.984;2023-08-01T00:54:27;99487.81;;;16.41;94.44
59391;BME280;53405;57.012;40.984;2023-08-01T00:56:54;99499.56;;;16.33;94.57
59391;BME280;53405;57.012;40.984;2023-08-01T00:59:22;99501.50;;;16.14;95.29
59391;BME280;53405;57.012;40.984;2023-08-01T01:01:50;99499.06;;;16.13;96.06
59391;BME280;53405;57.012;40.984;2023-08-01T01:04:18;99504.88;;;16.33;95.03
59391;BME280;53405;57.012;40.984;2023-08-01T01:06:51;99507.19;;;16.30;94.95
59391;BME280;53405;57.012;40.984;2023-08-01T01:09:20;99507.78;;;16.32;94.89
59391;BME280;53405;57.012;40.984;2023-08-01T01:11:48;99483.91;;;16.01;95.47
59391;BME280;53405;57.012;40.984;2023-08-01T01:14:16;99517.31;;;16.09;95.87
59391;BME280;53405;57.012;40.984;2023-08-01T01:16:43;99502.03;;;16.04;95.86
59391;BME280;53405;57.012;40.984;2023-08-01T01:19:11;99512.56;;;16.11;95.91
59391;BME280;53405;57.012;40.984;2023-08-01T01:22:03;99520.91;;;16.15;96.01
59391;BME280;53405;57.012;40.984;2023-08-01T01:24:42;99507.31;;;15.93;96.65
59391;BME280;53405;57.012;40.984;2023-08-01T01:27:09;99492.41;;;15.92;96.06
59391;BME280;53405;57.012;40.984;2023-08-01T01:29:38;99523.06;;;16.06;96.25
59391;BME280;53405;57.012;40.984;2023-08-01T01:32:07;99500.16;;;15.75;97.16
59391;BME280;53405;57.012;40.984;2023-08-01T01:34:36;99510.13;;;15.79;97.44
59391;BME280;53405;57.012;40.984;2023-08-01T01:37:04;99523.69;;;15.89;97.83
59391;BME280;53405;57.012;40.984;2023-08-01T01:39:32;99517.50;;;15.96;97.24
59391;BME280;53405;57.012;40.984;2023-08-01T01:42:00;99527.06;;;15.97;97.32
59391;BME280;53405;57.012;40.984;2023-08-01T01:44:28;99526.91;;;16.10;96.98
59391;BME280;53405;57.012;40.984;2023-08-01T01:46:56;99524.47;;;16.08;96.90
59391;BME280;53405;57.012;40.984;2023-08-01T01:49:24;99536.25;;;16.13;97.09
59391;BME280;53405;57.012;40.984;2023-08-01T01:51:53;99527.47;;;16.12;96.47
59391;BME280;53405;57.012;40.984;2023-08-01T01:54:20;99536.75;;;16.21;95.84
59391;BME280;53405;57.012;40.984;2023-08-01T01:56:48;99541.72;;;16.18;96.12
59391;BME280;53405;57.012;40.984;2023-08-01T01:59:16;99547.03;;;16.18;95.79
59391;BME280;53405;57.012;40.984;2023-08-01T02:01:43;99546.38;;;16.34;93.82
59391;BME280;53405;57.012;40.984;2023-08-01T02:04:11;99547.28;;;16.28;93.25
59391;BME280;53405;57.012;40.984;2023-08-01T02:06:39;99548.59;;;16.37;93.25
59391;BME280;53405;57.012;40.984;2023-08-01T02:09:08;99548.59;;;16.37;93.36
59391;BME280;53405;57.012;40.984;2023-08-01T02:11:35;99549.94;;;16.28;94.78
59391;BME280;53405;57.012;40.984;2023-08-01T02:14:03;99547.63;;;16.32;94.46
59391;BME280;53405;57.012;40.984;2023-08-01T02:16:31;99551.00;;;16.39;92.41
59391;BME280;53405;57.012;40.984;2023-08-01T02:18:59;99560.97;;;16.43;91.01
59391;BME280;53405;57.012;40.984;2023-08-01T02:21:27;99553.78;;;16.44;91.14
59391;BME280;53405;57.012;40.984;2023-08-01T02:23:54;99563.03;;;16.41;90.73
59391;BME280;53405;57.012;40.984;2023-08-01T02:26:22;99558.31;;;16.43;91.38
59391;BME280;53405;57.012;40.984;2023-08-01T02:28:51;99554.91;;;16.36;91.45
59391;BME280;53405;57.012;40.984;2023-08-01T02:31:18;99554.34;;;16.34;90.86
59391;BME280;53405;57.012;40.984;2023-08-01T02:33:46;99551.34;;;16.31;91.42
59391;BME280;53405;57.012;40.984;2023-08-01T02:36:14;99561.41;;;16.40;90.71
59391;BME280;53405;57.012;40.984;2023-08-01T02:38:42;99556.09;;;16.40;90.38
59391;BME280;53405;57.012;40.984;2023-08-01T02:41:09;99544.75;;;16.33;90.43
59391;BME280;53405;57.012;40.984;2023-08-01T02:43:37;99560.84;;;16.38;91.02
59391;BME280;53405;57.012;40.984;2023-08-01T02:46:04;99555.78;;;16.49;90.18
59391;BME280;53405;57.012;40.984;2023-08-01T02:48:33;99550.91;;;16.46;89.06
59391;BME280;53405;57.012;40.984;2023-08-01T02:51:02;99562.38;;;16.46;88.94
59391;BME280;53405;57.012;40.984;2023-08-01T02:53:30;99553.44;;;16.40;90.44
59391;BME280;53405;57.012;40.984;2023-08-01T02:55:57;99556.69;;;16.42;91.68
59391;BME280;53405;57.012;40.984;2023-08-01T02:58:25;99559.72;;;16.46;91.72
59391;BME280;53405;57.012;40.984;2023-08-01T03:00:53;99564.69;;;16.54;90.81
59391;BME280;53405;57.012;40.984;2023-08-01T03:03:20;99544.78;;;16.45;90.55
59391;BME280;53405;57.012;40.984;2023-08-01T03:05:48;99563.91;;;16.66;89.65
59391;BME280;53405;57.012;40.984;2023-08-01T03:08:16;99551.97;;;16.56;90.04
59391;BME280;53405;57.012;40.984;2023-08-01T03:10:44;99569.78;;;16.56;90.25
59391;BME280;53405;57.012;40.984;2023-08-01T03:13:12;99568.88;;;16.74;88.65
59391;BME280;53405;57.012;40.984;2023-08-01T03:15:40;99565.75;;;16.65;89.23
59391;BME280;53405;57.012;40.984;2023-08-01T03:18:08;99570.75;;;16.85;88.04
59391;BME280;53405;57.012;40.984;2023-08-01T03:20:38;99575.63;;;16.88;87.67
59391;BME280;53405;57.012;40.984;2023-08-01T03:23:09;99575.88;;;16.87;87.96
59391;BME280;53405;57.012;40.984;2023-08-01T03:25:38;99577.34;;;16.83;88.44
59391;BME280;53405;57.012;40.984;2023-08-01T03:28:06;99581.38;;;16.85;88.85
59391;BME280;53405;57.012;40.984;2023-08-01T03:30:33;99583.38;;;16.90;88.71
59391;BME280;53405;57.012;40.984;2023-08-01T03:33:01;99585.97;;;17.08;87.21
59391;BME280;53405;57.012;40.984;2023-08-01T03:35:30;99585.28;;;17.13;86.74
59391;BME280;53405;57.012;40.984;2023-08-01T03:37:58;99587.00;;;17.07;87.55
59391;BME280;53405;57.012;40.984;2023-08-01T03:40:27;99585.72;;;17.10;88.75
59391;BME280;53405;57.012;40.984;2023-08-01T03:42:55;99562.03;;;17.08;86.97
59391;BME280;53405;57.012;40.984;2023-08-01T03:45:22;99590.25;;;17.33;86.43
59391;BME280;53405;57.012;40.984;2023-08-01T03:47:50;99561.69;;;17.05;89.65
59391;BME280;53405;57.012;40.984;2023-08-01T03:50:18;99596.38;;;17.22;88.95
59391;BME280;53405;57.012;40.984;2023-08-01T03:52:49;99580.88;;;17.19;88.91
59391;BME280;53405;57.012;40.984;2023-08-01T03:55:16;99584.69;;;17.34;88.48
59391;BME280;53405;57.012;40.984;2023-08-01T03:57:46;99595.19;;;17.53;87.59
59391;BME280;53405;57.012;40.984;2023-08-01T04:00:13;99588.47;;;17.62;86.03
59391;BME280;53405;57.012;40.984;2023-08-01T04:02:44;99594.50;;;17.69;85.31
59391;BME280;53405;57.012;40.984;2023-08-01T04:05:13;99593.34;;;17.65;85.93
59391;BME280;53405;57.012;40.984;2023-08-01T04:07:41;99596.00;;;17.77;85.15
59391;BME280;53405;57.012;40.984;2023-08-01T04:10:09;99601.75;;;17.86;84.96
59391;BME280;53405;57.012;40.984;2023-08-01T04:12:37;99603.16;;;17.88;85.20
59391;BME280;53405;57.012;40.984;2023-08-01T04:15:06;99599.78;;;17.81;85.68
59391;BME280;53405;57.012;40.984;2023-08-01T04:17:33;99575.38;;;17.73;85.85
59391;BME280;53405;57.012;40.984;2023-08-01T04:20:01;99596.81;;;17.90;85.97
59391;BME280;53405;57.012;40.984;2023-08-01T04:22:30;99583.22;;;18.03;83.48
59391;BME280;53405;57.012;40.984;2023-08-01T04:24:57;99603.03;;;18.24;82.80
59391;BME280;53405;57.012;40.984;2023-08-01T04:27:25;99595.16;;;18.29;83.09
59391;BME280;53405;57.012;40.984;2023-08-01T04:29:53;99602.06;;;18.42;83.54
59391;BME280;53405;57.012;40.984;2023-08-01T04:32:21;99597.97;;;18.51;82.54
59391;BME280;53405;57.012;40.984;2023-08-01T04:34:49;99604.84;;;18.64;81.96
59391;BME280;53405;57.012;40.984;2023-08-01T04:37:17;99601.22;;;18.70;80.92
59391;BME280;53405;57.012;40.984;2023-08-01T04:39:48;99595.66;;;18.72;80.13
59391;BME280;53405;57.012;40.984;2023-08-01T04:42:15;99610.78;;;18.83;79.93
59391;BME280;53405;57.012;40.984;2023-08-01T04:44:43;99612.91;;;18.98;79.84
59391;BME280;53405;57.012;40.984;2023-08-01T04:47:10;99619.94;;;19.04;80.15
59391;BME280;53405;57.012;40.984;2023-08-01T04:49:38;99593.50;;;19.03;78.24
59391;BME280;53405;57.012;40.984;2023-08-01T04:52:06;99612.09;;;19.14;78.45
59391;BME280;53405;57.012;40.984;2023-08-01T04:54:34;99617.75;;;19.18;78.67
59391;BME280;53405;57.012;40.984;2023-08-01T04:57:02;99611.38;;;19.19;79.26
59391;BME280;53405;57.012;40.984;2023-08-01T04:59:30;99620.16;;;19.37;78.65
59391;BME280;53405;57.012;40.984;2023-08-01T05:01:58;99620.06;;;19.48;77.99
59391;BME280;53405;57.012;40.984;2023-08-01T05:04:25;99619.97;;;19.60;77.75
59391;BME280;53405;57.012;40.984;2023-08-01T05:06:53;99609.84;;;19.62;77.81
59391;BME280;53405;57.012;40.984;2023-08-01T05:09:21;99615.16;;;19.79;76.76
59391;BME280;53405;57.012;40.984;2023-08-01T05:11:48;99611.75;;;19.84;77.11
59391;BME280;53405;57.012;40.984;2023-08-01T05:14:16;99625.06;;;20.01;76.12
59391;BME280;53405;57.012;40.984;2023-08-01T05:16:44;99615.97;;;20.02;74.94
59391;BME280;53405;57.012;40.984;2023-08-01T05:19:12;99610.31;;;19.98;74.80
59391;BME280;53405;57.012;40.984;2023-08-01T05:21:40;99623.16;;;20.24;74.56
59391;BME280;53405;57.012;40.984;2023-08-01T05:24:07;99594.50;;;20.19;74.46
59391;BME280;53405;57.012;40.984;2023-08-01T05:26:35;99622.63;;;20.49;73.02
59391;BME280;53405;57.012;40.984;2023-08-01T05:29:04;99626.97;;;20.55;72.74
59391;BME280;53405;57.012;40.984;2023-08-01T05:31:31;99626.41;;;20.53;72.32
59391;BME280;53405;57.012;40.984;2023-08-01T05:33:59;99632.66;;;20.64;72.72
59391;BME280;53405;57.012;40.984;2023-08-01T05:36:26;99619.66;;;20.72;71.31
59391;BME280;53405;57.012;40.984;2023-08-01T05:38:54;99628.00;;;20.76;72.08
59391;BME280;53405;57.012;40.984;2023-08-01T05:41:22;99603.00;;;20.65;72.43
59391;BME280;53405;57.012;40.984;2023-08-01T05:43:50;99630.19;;;20.84;72.51
59391;BME280;53405;57.012;40.984;2023-08-01T05:46:17;99627.88;;;20.93;70.95
59391;BME280;53405;57.012;40.984;2023-08-01T05:48:45;99635.16;;;21.03;71.03
59391;BME280;53405;57.012;40.984;2023-08-01T05:51:12;99594.19;;;20.97;69.89
59391;BME280;53405;57.012;40.984;2023-08-01T05:53:41;99630.78;;;21.24;68.00
59391;BME280;53405;57.012;40.984;2023-08-01T05:56:11;99599.38;;;21.14;68.38
59391;BME280;53405;57.012;40.984;2023-08-01T05:58:38;99628.78;;;21.46;67.79
59391;BME280;53405;57.012;40.984;2023-08-01T06:01:06;99628.59;;;21.53;67.92
59391;BME280;53405;57.012;40.984;2023-08-01T06:03:34;99633.75;;;21.65;67.95
59391;BME280;53405;57.012;40.984;2023-08-01T06:06:01;99635.69;;;21.75;66.84
59391;BME280;53405;57.012;40.984;2023-08-01T06:08:29;99631.13;;;21.75;67.24
59391;BME280;53405;57.012;40.984;2023-08-01T06:10:56;99632.75;;;21.87;67.06
59391;BME280;53405;57.012;40.984;2023-08-01T06:13:24;99634.47;;;22.08;66.59
59391;BME280;53405;57.012;40.984;2023-08-01T06:15:51;99608.44;;;21.98;65.69
59391;BME280;53405;57.012;40.984;2023-08-01T06:18:19;99642.25;;;22.15;62.48
59391;BME280;53405;57.012;40.984;2023-08-01T06:20:47;99636.63;;;22.16;60.60
59391;BME280;53405;57.012;40.984;2023-08-01T06:23:14;99642.56;;;22.24;62.52
59391;BME280;53405;57.012;40.984;2023-08-01T06:25:42;99647.19;;;22.33;61.48
59391;BME280;53405;57.012;40.984;2023-08-01T06:28:09;99650.13;;;22.37;60.74
59391;BME280;53405;57.012;40.984;2023-08-01T06:30:37;99644.00;;;22.47;61.67
59391;BME280;53405;57.012;40.984;2023-08-01T06:33:05;99624.72;;;22.50;61.34
59391;BME280;53405;57.012;40.984;2023-08-01T06:35:32;99646.16;;;22.65;61.94
59391;BME280;53405;57.012;40.984;2023-08-01T06:38:00;99649.94;;;22.74;62.60
59391;BME280;53405;57.012;40.984;2023-08-01T06:40:28;99642.97;;;22.68;61.63
59391;BME280;53405;57.012;40.984;2023-08-01T06:42:56;99654.50;;;22.84;63.10
59391;BME280;53405;57.012;40.984;2023-08-01T06:45:24;99650.50;;;22.92;63.02
59391;BME280;53405;57.012;40.984;2023-08-01T06:47:52;99647.53;;;22.94;63.46
59391;BME280;53405;57.012;40.984;2023-08-01T06:50:20;99656.94;;;23.06;61.94
59391;BME280;53405;57.012;40.984;2023-08-01T06:52:48;99649.16;;;22.95;62.07
59391;BME280;53405;57.012;40.984;2023-08-01T06:55:15;99659.88;;;23.00;62.58
59391;BME280;53405;57.012;40.984;2023-08-01T06:57:43;99660.19;;;23.08;61.96
59391;BME280;53405;57.012;40.984;2023-08-01T07:00:11;99653.19;;;23.13;60.94
59391;BME280;53405;57.012;40.984;2023-08-01T07:02:38;99663.13;;;23.22;60.75
59391;BME280;53405;57.012;40.984;2023-08-01T07:05:06;99657.22;;;23.20;59.97
59391;BME280;53405;57.012;40.984;2023-08-01T07:07:36;99662.59;;;23.25;59.16
59391;BME280;53405;57.012;40.984;2023-08-01T07:10:04;99667.16;;;23.35;59.12
59391;BME280;53405;57.012;40.984;2023-08-01T07:12:32;99661.47;;;23.52;59.02
59391;BME280;53405;57.012;40.984;2023-08-01T07:14:59;99665.25;;;23.67;57.54
59391;BME280;53405;57.012;40.984;2023-08-01T07:17:31;99665.22;;;23.72;58.26
59391;BME280;53405;57.012;40.984;2023-08-01T07:19:58;99660.13;;;23.65;58.20
59391;BME280;53405;57.012;40.984;2023-08-01T07:22:26;99665.50;;;23.70;58.59
59391;BME280;53405;57.012;40.984;2023-08-01T07:24:54;99656.88;;;23.73;58.66
59391;BME280;53405;57.012;40.984;2023-08-01T07:27:22;99662.22;;;23.78;58.41
59391;BME280;53405;57.012;40.984;2023-08-01T07:29:49;99647.72;;;23.74;57.80
59391;BME280;53405;57.012;40.984;2023-08-01T07:32:17;99668.09;;;24.01;58.28
59391;BME280;53405;57.012;40.984;2023-08-01T07:34:44;99668.09;;;24.06;56.59
59391;BME280;53405;57.012;40.984;2023-08-01T07:37:12;99677.72;;;24.17;56.37
59391;BME280;53405;57.012;40.984;2023-08-01T07:39:41;99668.56;;;24.18;56.31
59391;BME280;53405;57.012;40.984;2023-08-01T07:42:08;99671.16;;;24.39;56.02
59391;BME280;53405;57.012;40.984;2023-08-01T07:44:36;99675.63;;;24.59;56.37
59391;BME280;53405;57.012;40.984;2023-08-01T07:47:03;99663.25;;;24.63;55.49
59391;BME280;53405;57.012;40.984;2023-08-01T07:49:31;99666.94;;;24.73;54.28
59391;BME280;53405;57.012;40.984;2023-08-01T07:51:59;99666.53;;;24.89;52.36
59391;BME280;53405;57.012;40.984;2023-08-01T07:54:27;99670.94;;;24.80;49.71
59391;BME280;53405;57.012;40.984;2023-08-01T07:56:54;99671.75;;;24.81;51.00
59391;BME280;53405;57.012;40.984;2023-08-01T07:59:22;99667.81;;;25.02;51.31
59391;BME280;53405;57.012;40.984;2023-08-01T08:01:49;99671.97;;;25.19;50.67
59391;BME280;53405;57.012;40.984;2023-08-01T08:04:17;99664.50;;;25.11;48.81
59391;BME280;53405;57.012;40.984;2023-08-01T08:06:45;99654.69;;;24.91;49.76
59391;BME280;53405;57.012;40.984;2023-08-01T08:09:12;99664.00;;;25.09;50.60
59391;BME280;53405;57.012;40.984;2023-08-01T08:11:40;99665.78;;;25.18;50.01
59391;BME280;53405;57.012;40.984;2023-08-01T08:14:08;99661.53;;;25.12;50.64
59391;BME280;53405;57.012;40.984;2023-08-01T08:16:36;99664.44;;;24.86;50.32
59391;BME280;53405;57.012;40.984;2023-08-01T08:19:04;99664.00;;;25.03;49.87
59391;BME280;53405;57.012;40.984;2023-08-01T08:21:31;99656.56;;;25.24;48.71
59391;BME280;53405;57.012;40.984;2023-08-01T08:23:59;99669.41;;;25.62;49.54
59391;BME280;53405;57.012;40.984;2023-08-01T08:26:27;99667.63;;;25.52;47.44
59391;BME280;53405;57.012;40.984;2023-08-01T08:28:55;99663.56;;;25.25;48.47
59391;BME280;53405;57.012;40.984;2023-08-01T08:31:22;99666.69;;;25.09;48.61
59391;BME280;53405;57.012;40.984;2023-08-01T08:33:50;99645.88;;;24.85;49.38
59391;BME280;53405;57.012;40.984;2023-08-01T08:36:17;99665.34;;;25.06;50.46
59391;BME280;53405;57.012;40.984;2023-08-01T08:38:45;99663.19;;;25.67;49.83
59391;BME280;53405;57.012;40.984;2023-08-01T08:41:20;99663.28;;;26.29;45.99
59391;BME280;53405;57.012;40.984;2023-08-01T08:43:49;99664.06;;;26.48;43.63
59391;BME280;53405;57.012;40.984;2023-08-01T08:46:16;99663.72;;;26.36;43.87
59391;BME280;53405;57.012;40.984;2023-08-01T08:48:45;99670.72;;;25.94;45.68
59391;BME280;53405;57.012;40.984;2023-08-01T08:51:14;99663.66;;;25.74;47.01
59391;BME280;53405;57.012;40.984;2023-08-01T08:53:42;99668.88;;;26.32;48.04
59391;BME280;53405;57.012;40.984;2023-08-01T08:56:12;99667.47;;;27.11;44.84
59391;BME280;53405;57.012;40.984;2023-08-01T08:58:42;99663.69;;;27.73;42.52
59391;BME280;53405;57.012;40.984;2023-08-01T09:01:10;99661.75;;;27.32;42.40
59391;BME280;53405;57.012;40.984;2023-08-01T09:03:38;99666.16;;;26.76;43.81
59391;BME280;53405;57.012;40.984;2023-08-01T09:06:13;99661.28;;;26.15;44.96
59391;BME280;53405;57.012;40.984;2023-08-01T09:08:47;99659.53;;;26.68;45.33
59391;BME280;53405;57.012;40.984;2023-08-01T09:11:18;99661.28;;;27.71;45.50
59391;BME280;53405;57.012;40.984;2023-08-01T09:13:47;99674.00;;;27.85;42.28
59391;BME280;53405;57.012;40.984;2023-08-01T09:16:15;99655.03;;;27.10;43.78
59391;BME280;53405;57.012;40.984;2023-08-01T09:18:50;99672.03;;;26.59;44.92
59391;BME280;53405;57.012;40.984;2023-08-01T09:21:20;99672.59;;;26.18;45.77
59391;BME280;53405;57.012;40.984;2023-08-01T09:23:47;99666.91;;;25.95;45.72
59391;BME280;53405;57.012;40.984;2023-08-01T09:26:16;99664.84;;;25.87;45.68
59391;BME280;53405;57.012;40.984;2023-08-01T09:28:44;99666.84;;;25.76;45.71
59391;BME280;53405;57.012;40.984;2023-08-01T09:31:29;99669.44;;;26.10;46.88
59391;BME280;53405;57.012;40.984;2023-08-01T09:33:58;99656.59;;;26.02;46.53
59391;BME280;53405;57.012;40.984;2023-08-01T09:36:25;99659.97;;;26.13;47.51
59391;BME280;53405;57.012;40.984;2023-08-01T09:39:01;99661.84;;;26.56;46.94
59391;BME280;53405;57.012;40.984;2023-08-01T09:41:30;99664.28;;;27.42;44.48
59391;BME280;53405;57.012;40.984;2023-08-01T09:43:58;99659.19;;;28.60;42.68
59391;BME280;53405;57.012;40.984;2023-08-01T09:46:26;99619.16;;;29.25;42.18
59391;BME280;53405;57.012;40.984;2023-08-01T09:48:53;99642.72;;;30.05;38.17
59391;BME280;53405;57.012;40.984;2023-08-01T09:51:21;99654.00;;;29.41;39.24
59391;BME280;53405;57.012;40.984;2023-08-01T09:53:55;99658.38;;;28.60;40.94
59391;BME280;53405;57.012;40.984;2023-08-01T09:56:24;99651.69;;;28.07;41.39
59391;BME280;53405;57.012;40.984;2023-08-01T09:58:54;99654.00;;;27.72;44.95
59391;BME280;53405;57.012;40.984;2023-08-01T10:01:23;99635.34;;;27.70;44.58
59391;BME280;53405;57.012;40.984;2023-08-01T10:03:52;99643.47;;;28.35;41.64
59391;BME280;53405;57.012;40.984;2023-08-01T10:06:22;99656.38;;;29.11;40.52
59391;BME280;53405;57.012;40.984;2023-08-01T10:08:51;99644.25;;;29.80;39.71
59391;BME280;53405;57.012;40.984;2023-08-01T10:11:21;99644.50;;;30.18;40.14
59391;BME280;53405;57.012;40.984;2023-08-01T10:13:49;99620.75;;;30.50;37.74
59391;BME280;53405;57.012;40.984;2023-08-01T10:16:17;99653.63;;;30.92;36.54
59391;BME280;53405;57.012;40.984;2023-08-01T10:18:44;99651.31;;;31.29;35.39
59391;BME280;53405;57.012;40.984;2023-08-01T10:21:17;99634.28;;;30.85;38.50
59391;BME280;53405;57.012;40.984;2023-08-01T10:23:45;99642.41;;;30.24;37.00
59391;BME280;53405;57.012;40.984;2023-08-01T10:26:15;99621.81;;;30.14;36.53
59391;BME280;53405;57.012;40.984;2023-08-01T10:28:50;99646.53;;;29.95;37.13
59391;BME280;53405;57.012;40.984;2023-08-01T10:31:19;99644.13;;;28.91;38.34
59391;BME280;53405;57.012;40.984;2023-08-01T10:33:51;99660.69;;;28.02;40.28
59391;BME280;53405;57.012;40.984;2023-08-01T10:36:23;99649.75;;;27.52;42.77
59391;BME280;53405;57.012;40.984;2023-08-01T10:38:53;99625.94;;;27.21;43.64
59391;BME280;53405;57.012;40.984;2023-08-01T10:41:31;99654.28;;;27.23;46.04
59391;BME280;53405;57.012;40.984;2023-08-01T10:49:15;99637.84;;;30.59;36.06
59391;BME280;53405;57.012;40.984;2023-08-01T10:51:43;99652.34;;;30.90;35.55
59391;BME280;53405;57.012;40.984;2023-08-01T10:54:21;99647.41;;;31.57;33.77
59391;BME280;53405;57.012;40.984;2023-08-01T10:56:51;99647.34;;;31.95;33.69
59391;BME280;53405;57.012;40.984;2023-08-01T10:59:20;99648.53;;;32.15;33.65
59391;BME280;53405;57.012;40.984;2023-08-01T11:01:53;99645.91;;;31.98;34.58
59391;BME280;53405;57.012;40.984;2023-08-01T11:04:22;99647.25;;;32.13;32.97
59391;BME280;53405;57.012;40.984;2023-08-01T11:06:54;99653.19;;;32.36;32.98
59391;BME280;53405;57.012;40.984;2023-08-01T11:09:27;99648.00;;;32.22;32.09
59391;BME280;53405;57.012;40.984;2023-08-01T11:11:59;99644.41;;;31.79;31.92
59391;BME280;53405;57.012;40.984;2023-08-01T11:14:28;99647.97;;;31.24;33.88
59391;BME280;53405;57.012;40.984;2023-08-01T11:16:57;99648.06;;;31.45;33.73
59391;BME280;53405;57.012;40.984;2023-08-01T11:19:28;99640.31;;;31.17;34.47
59391;BME280;53405;57.012;40.984;2023-08-01T11:21:57;99639.34;;;29.82;37.20
59391;BME280;53405;57.012;40.984;2023-08-01T11:24:26;99632.53;;;30.28;36.72
59391;BME280;53405;57.012;40.984;2023-08-01T11:26:54;99633.88;;;31.30;34.46
59391;BME280;53405;57.012;40.984;2023-08-01T11:29:22;99643.94;;;31.77;33.53
59391;BME280;53405;57.012;40.984;2023-08-01T11:31:54;99646.72;;;31.89;33.49
59391;BME280;53405;57.012;40.984;2023-08-01T11:34:23;99639.16;;;32.25;32.81
59391;BME280;53405;57.012;40.984;2023-08-01T11:36:51;99645.53;;;32.50;32.51
59391;BME280;53405;57.012;40.984;2023-08-01T11:39:19;99638.78;;;31.46;34.54
59391;BME280;53405;57.012;40.984;2023-08-01T11:41:47;99642.72;;;30.05;36.16
59391;BME280;53405;57.012;40.984;2023-08-01T11:44:14;99637.97;;;29.30;38.56
59391;BME280;53405;57.012;40.984;2023-08-01T11:46:42;99639.75;;;28.81;40.26
59391;BME280;53405;57.012;40.984;2023-08-01T11:49:13;99641.22;;;29.41;37.75
59391;BME280;53405;57.012;40.984;2023-08-01T11:51:43;99632.19;;;30.99;34.64
59391;BME280;53405;57.012;40.984;2023-08-01T11:54:11;99636.84;;;31.55;34.72
59391;BME280;53405;57.012;40.984;2023-08-01T11:56:41;99634.97;;;31.38;35.11
59391;BME280;53405;57.012;40.984;2023-08-01T12:01:38;99633.22;;;29.76;37.27
59391;BME280;53405;57.012;40.984;2023-08-01T12:04:07;99611.63;;;29.22;37.82
59391;BME280;53405;57.012;40.984;2023-08-01T12:06:34;99628.34;;;28.93;38.88
59391;BME280;53405;57.012;40.984;2023-08-01T12:09:08;99635.63;;;28.61;39.47
59391;BME280;53405;57.012;40.984;2023-08-01T12:11:37;99614.72;;;28.02;41.32
59391;BME280;53405;57.012;40.984;2023-08-01T12:14:14;99624.06;;;28.55;40.17
59391;BME280;53405;57.012;40.984;2023-08-01T12:16:45;99618.66;;;28.55;41.10
59391;BME280;53405;57.012;40.984;2023-08-01T12:19:20;99621.59;;;28.45;40.22
59391;BME280;53405;57.012;40.984;2023-08-01T12:21:48;99620.47;;;28.23;40.26
59391;BME280;53405;57.012;40.984;2023-08-01T12:24:16;99617.81;;;28.46;41.07
59391;BME280;53405;57.012;40.984;2023-08-01T12:26:44;99618.94;;;28.90;41.15
59391;BME280;53405;57.012;40.984;2023-08-01T12:29:12;99617.19;;;28.94;39.87
59391;BME280;53405;57.012;40.984;2023-08-01T12:31:39;99618.31;;;28.71;41.53
59391;BME280;53405;57.012;40.984;2023-08-01T12:34:07;99621.16;;;28.65;39.82
59391;BME280;53405;57.012;40.984;2023-08-01T12:36:35;99612.78;;;28.39;39.39
59391;BME280;53405;57.012;40.984;2023-08-01T12:39:03;99619.78;;;28.18;39.22
59391;BME280;53405;57.012;40.984;2023-08-01T12:41:32;99608.78;;;27.86;41.29
59391;BME280;53405;57.012;40.984;2023-08-01T12:43:59;99616.59;;;27.60;42.56
59391;BME280;53405;57.012;40.984;2023-08-01T12:46:27;99605.91;;;27.55;40.96
59391;BME280;53405;57.012;40.984;2023-08-01T12:48:55;99609.41;;;27.55;41.62
59391;BME280;53405;57.012;40.984;2023-08-01T12:51:22;99613.13;;;27.73;42.68
59391;BME280;53405;57.012;40.984;2023-08-01T12:53:50;99610.59;;;27.77;41.86
59391;BME280;53405;57.012;40.984;2023-08-01T12:56:18;99612.19;;;27.78;41.31
59391;BME280;53405;57.012;40.984;2023-08-01T12:58:45;99602.78;;;27.75;40.53
59391;BME280;53405;57.012;40.984;2023-08-01T13:01:13;99599.06;;;27.57;42.44
59391;BME280;53405;57.012;40.984;2023-08-01T13:03:40;99572.03;;;27.30;44.17